createdAt,value
2023-05-22T00:01:43.208Z,13.23
2023-05-22T00:04:10.756Z,14.23
2023-05-22T00:06:38.048Z,13.85
2023-05-22T00:09:04.884Z,13.88
2023-05-22T00:11:31.940Z,14.13
2023-05-22T00:13:58.871Z,15.00
2023-05-22T00:16:25.948Z,14.48
2023-05-22T00:18:53.306Z,13.60
2023-05-22T00:21:20.206Z,15.20
2023-05-22T00:23:47.121Z,14.30
2023-05-22T00:26:16.443Z,14.43
2023-05-22T00:28:43.590Z,13.82
2023-05-22T00:31:10.608Z,14.52
2023-05-22T00:33:37.622Z,14.07
2023-05-22T00:36:05.332Z,13.48
2023-05-22T00:38:34.489Z,13.60
2023-05-22T00:41:02.796Z,13.35
2023-05-22T00:43:29.668Z,13.63
2023-05-22T00:45:57.103Z,13.20
2023-05-22T00:48:24.630Z,13.05
2023-05-22T00:50:53.847Z,14.23
2023-05-22T00:53:21.960Z,13.15
2023-05-22T00:55:49.406Z,13.23
2023-05-22T00:58:18.526Z,13.25
2023-05-22T01:00:46.799Z,13.45
2023-05-22T01:03:14.707Z,12.57
2023-05-22T01:05:45.312Z,12.82
2023-05-22T01:08:12.813Z,12.45
2023-05-22T01:10:41.064Z,13.35
2023-05-22T01:13:11.082Z,12.15
2023-05-22T01:15:56.364Z,12.82
2023-05-22T01:18:46.418Z,12.30
2023-05-22T01:21:25.345Z,12.27
2023-05-22T01:24:25.668Z,12.77
2023-05-22T01:27:07.338Z,13.00
2023-05-22T01:29:59.055Z,12.05
2023-05-22T01:32:29.011Z,13.13
2023-05-22T01:34:58.940Z,12.98
2023-05-22T01:37:27.576Z,13.68
2023-05-22T01:39:56.081Z,15.93
2023-05-22T01:42:23.702Z,18.23
2023-05-22T01:44:50.614Z,19.55
2023-05-22T01:47:18.153Z,19.85
2023-05-22T01:49:47.320Z,18.38
2023-05-22T01:52:22.865Z,19.45
2023-05-22T01:54:55.572Z,19.05
2023-05-22T01:57:35.131Z,20.13
2023-05-22T02:00:12.467Z,18.23
2023-05-22T02:02:45.871Z,19.63
2023-05-22T02:05:14.287Z,19.50
2023-05-22T02:07:42.607Z,19.42
2023-05-22T02:10:11.320Z,20.48
2023-05-22T02:12:39.352Z,18.40
2023-05-22T02:15:08.513Z,18.92
2023-05-22T02:17:42.589Z,18.90
2023-05-22T02:20:15.251Z,18.80
2023-05-22T02:22:44.469Z,17.50
2023-05-22T02:25:14.477Z,18.95
2023-05-22T02:27:42.882Z,17.00
2023-05-22T02:30:11.054Z,17.83
2023-05-22T02:32:39.271Z,17.42
2023-05-22T02:35:06.763Z,17.17
2023-05-22T02:37:34.149Z,17.38
2023-05-22T02:40:01.092Z,17.05
2023-05-22T02:42:27.983Z,17.60
2023-05-22T02:44:54.806Z,16.42
2023-05-22T02:47:21.697Z,16.88
2023-05-22T02:49:48.635Z,17.35
2023-05-22T02:52:15.695Z,16.17
2023-05-22T02:54:42.615Z,15.68
2023-05-22T02:57:09.448Z,16.33
2023-05-22T02:59:36.901Z,15.25
2023-05-22T03:02:03.949Z,15.18
2023-05-22T03:04:30.848Z,15.52
2023-05-22T03:06:57.732Z,15.18
2023-05-22T03:09:24.695Z,14.95
2023-05-22T03:11:51.672Z,14.50
2023-05-22T03:14:19.127Z,15.38
2023-05-22T03:16:46.257Z,14.40
2023-05-22T03:19:14.795Z,14.75
2023-05-22T03:21:44.607Z,15.23
2023-05-22T03:24:12.738Z,15.52
2023-05-22T03:26:39.777Z,15.18
2023-05-22T03:29:06.846Z,14.50
2023-05-22T03:31:34.615Z,15.35
2023-05-22T03:34:01.780Z,15.15
2023-05-22T03:36:32.333Z,15.88
2023-05-22T03:38:59.532Z,14.85
2023-05-22T03:41:26.522Z,14.73
2023-05-22T03:43:53.629Z,15.13
2023-05-22T03:46:20.699Z,14.50
2023-05-22T03:48:47.823Z,14.20
2023-05-22T03:51:14.938Z,15.07
2023-05-22T03:53:42.144Z,14.35
2023-05-22T03:56:09.121Z,14.30
2023-05-22T03:58:36.010Z,15.00
2023-05-22T04:01:03.380Z,14.32
2023-05-22T04:03:30.505Z,13.88
2023-05-22T04:05:58.520Z,13.45
2023-05-22T04:08:25.416Z,14.25
2023-05-22T04:10:54.558Z,13.38
2023-05-22T04:13:21.425Z,14.32
2023-05-22T04:15:50.032Z,14.27
2023-05-22T04:18:16.920Z,15.38
2023-05-22T04:20:43.842Z,13.70
2023-05-22T04:23:10.913Z,13.85
2023-05-22T04:25:38.034Z,14.20
2023-05-22T04:28:04.978Z,13.73
2023-05-22T04:30:37.498Z,14.60
2023-05-22T04:33:05.691Z,14.45
2023-05-22T04:35:35.221Z,13.63
2023-05-22T04:38:06.659Z,12.75
2023-05-22T04:40:34.387Z,13.80
2023-05-22T04:43:01.630Z,13.38
2023-05-22T04:45:29.019Z,14.57
2023-05-22T04:47:56.708Z,14.40
2023-05-22T04:50:24.078Z,14.43
2023-05-22T04:52:51.283Z,13.95
2023-05-22T04:55:19.450Z,14.75
2023-05-22T04:57:47.403Z,14.82
2023-05-22T05:00:16.850Z,14.48
2023-05-22T05:02:43.867Z,14.73
2023-05-22T05:05:10.825Z,13.52
2023-05-22T05:07:39.467Z,14.75
2023-05-22T05:10:07.349Z,13.80
2023-05-22T05:12:34.510Z,13.73
2023-05-22T05:15:01.520Z,13.90
2023-05-22T05:17:28.854Z,13.98
2023-05-22T05:19:56.063Z,14.00
2023-05-22T05:22:23.103Z,14.02
2023-05-22T05:24:50.206Z,14.18
2023-05-22T05:27:17.085Z,14.15
2023-05-22T05:29:43.958Z,12.98
2023-05-22T05:32:12.638Z,14.43
2023-05-22T05:34:39.836Z,13.55
2023-05-22T05:37:06.913Z,13.93
2023-05-22T05:39:33.858Z,14.57
2023-05-22T05:42:01.432Z,15.05
2023-05-22T05:44:28.759Z,14.25
2023-05-22T05:46:55.853Z,14.18
2023-05-22T05:49:22.774Z,13.88
2023-05-22T05:51:49.864Z,13.60
2023-05-22T05:54:17.016Z,14.18
2023-05-22T05:56:44.233Z,13.65
2023-05-22T05:59:11.393Z,13.27
2023-05-22T06:04:28.471Z,13.07
2023-05-22T06:06:55.638Z,12.73
2023-05-22T06:09:22.932Z,13.02
2023-05-22T06:11:50.272Z,11.73
2023-05-22T06:14:17.908Z,12.23
2023-05-22T06:16:46.014Z,12.38
2023-05-22T06:19:13.227Z,11.93
2023-05-22T06:22:00.224Z,13.02
2023-05-22T06:24:27.281Z,12.15
2023-05-22T06:29:38.140Z,12.75
2023-05-22T06:32:46.260Z,12.63
2023-05-22T06:35:16.677Z,12.60
2023-05-22T06:37:49.752Z,12.23
2023-05-22T06:40:25.865Z,13.68
2023-05-22T06:42:56.492Z,12.30
2023-05-22T06:45:49.695Z,12.15
2023-05-22T06:51:04.750Z,10.82
2023-05-22T06:53:37.126Z,12.00
2023-05-22T06:56:14.387Z,12.38
2023-05-22T06:58:49.474Z,12.32
2023-05-22T07:03:54.043Z,12.02
2023-05-22T07:06:21.512Z,10.95
2023-05-22T07:08:57.661Z,11.85
2023-05-22T07:11:30.742Z,12.40
2023-05-22T07:13:58.194Z,11.32
2023-05-22T07:16:26.170Z,11.52
2023-05-22T07:18:56.147Z,11.50
2023-05-22T07:21:26.004Z,11.63
2023-05-22T07:23:53.087Z,11.70
2023-05-22T07:26:19.953Z,10.70
2023-05-22T07:28:47.055Z,11.02
2023-05-22T07:31:14.268Z,11.13
2023-05-22T07:33:41.336Z,11.70
2023-05-22T07:36:19.217Z,11.63
2023-05-22T07:38:54.503Z,10.82
2023-05-22T07:41:22.743Z,11.43
2023-05-22T07:43:50.269Z,10.65
2023-05-22T07:46:43.639Z,10.25
2023-05-22T07:49:26.067Z,10.18
2023-05-22T07:51:56.558Z,9.98
2023-05-22T07:54:42.430Z,9.95
2023-05-22T07:57:12.702Z,10.50
2023-05-22T08:00:01.074Z,9.88
2023-05-22T08:02:32.052Z,10.30
2023-05-22T08:15:08.430Z,9.70
2023-05-22T08:25:23.996Z,9.25
2023-05-22T08:27:50.988Z,9.10
2023-05-22T08:30:18.173Z,9.60
2023-05-22T08:32:45.075Z,8.88
2023-05-22T08:35:12.210Z,8.40
2023-05-22T08:37:39.255Z,9.27
2023-05-22T08:40:11.605Z,8.10
2023-05-22T08:42:38.780Z,8.98
2023-05-22T08:45:07.158Z,8.80
2023-05-22T08:47:37.934Z,8.32
2023-05-22T08:50:05.261Z,9.20
2023-05-22T08:52:48.376Z,8.75
2023-05-22T08:55:15.895Z,9.07
2023-05-22T08:57:44.723Z,8.43
2023-05-22T09:00:12.740Z,8.13
2023-05-22T09:02:40.310Z,7.70
2023-05-22T09:05:08.103Z,8.30
2023-05-22T09:07:36.024Z,8.70
2023-05-22T09:10:06.675Z,7.95
2023-05-22T09:12:34.278Z,8.23
2023-05-22T09:15:12.102Z,8.15
2023-05-22T09:17:41.194Z,7.90
2023-05-22T09:20:10.540Z,8.15
2023-05-22T09:22:39.073Z,8.30
2023-05-22T09:25:09.839Z,7.88
2023-05-22T09:27:36.888Z,7.50
2023-05-22T09:30:04.136Z,7.82
2023-05-22T09:32:31.586Z,8.50
2023-05-22T09:35:05.358Z,7.65
2023-05-22T09:37:36.676Z,7.40
2023-05-22T09:40:14.226Z,9.25
2023-05-22T09:42:45.088Z,8.10
2023-05-22T09:45:12.694Z,8.18
2023-05-22T09:47:40.539Z,8.48
2023-05-22T09:50:10.947Z,7.97
2023-05-22T09:52:38.477Z,8.68
2023-05-22T09:55:07.251Z,8.40
2023-05-22T09:57:44.785Z,8.40
2023-05-22T10:00:15.574Z,7.90
2023-05-22T10:02:49.297Z,8.75
2023-05-22T10:05:21.925Z,8.77
2023-05-22T10:07:52.130Z,9.15
2023-05-22T10:10:23.545Z,8.52
2023-05-22T10:12:54.403Z,8.20
2023-05-22T10:15:22.738Z,8.10
2023-05-22T10:17:50.865Z,8.00
2023-05-22T10:20:18.075Z,7.80
2023-05-22T10:22:47.230Z,8.45
2023-05-22T10:25:14.291Z,8.23
2023-05-22T10:27:41.671Z,9.02
2023-05-22T10:30:35.127Z,8.30
2023-05-22T10:33:12.381Z,8.65
2023-05-22T10:35:41.941Z,7.88
2023-05-22T10:38:54.449Z,8.43
2023-05-22T10:41:24.969Z,8.80
2023-05-22T10:43:52.353Z,8.30
2023-05-22T10:46:19.414Z,8.50
2023-05-22T10:48:52.019Z,8.90
2023-05-22T10:51:21.131Z,8.43
2023-05-22T10:54:05.879Z,8.57
2023-05-22T10:56:37.310Z,8.02
2023-05-22T10:59:08.338Z,9.32
2023-05-22T11:01:38.689Z,9.25
2023-05-22T11:04:07.053Z,9.00
2023-05-22T11:07:06.357Z,9.20
2023-05-22T11:09:34.533Z,8.52
2023-05-22T11:12:31.353Z,8.73
2023-05-22T11:15:10.115Z,8.80
2023-05-22T11:17:41.802Z,9.25
2023-05-22T11:20:26.038Z,9.07
2023-05-22T11:23:07.475Z,9.60
2023-05-22T11:25:36.783Z,9.32
2023-05-22T11:28:05.752Z,8.85
2023-05-22T11:30:33.950Z,8.95
2023-05-22T11:33:02.312Z,9.35
2023-05-22T11:35:29.519Z,8.63
2023-05-22T11:37:57.113Z,8.48
2023-05-22T11:40:29.536Z,9.20
2023-05-22T11:42:57.161Z,9.13
2023-05-22T11:45:27.295Z,8.20
2023-05-22T11:47:54.427Z,8.20
2023-05-22T11:50:40.373Z,9.23
2023-05-22T11:53:08.818Z,8.32
2023-05-22T11:55:36.028Z,8.02
2023-05-22T11:58:03.144Z,8.18
2023-05-22T12:00:31.783Z,8.52
2023-05-22T12:02:59.752Z,8.45
2023-05-22T12:05:26.863Z,8.43
2023-05-22T12:07:54.245Z,8.00
2023-05-22T12:10:22.238Z,8.10
2023-05-22T12:12:49.753Z,8.20
2023-05-22T12:15:22.716Z,8.32
2023-05-22T12:17:49.690Z,8.32
2023-05-22T12:20:17.031Z,7.68
2023-05-22T12:22:44.213Z,8.13
2023-05-22T12:25:16.831Z,9.13
2023-05-22T12:27:45.818Z,8.48
2023-05-22T12:30:14.732Z,8.25
2023-05-22T12:32:46.971Z,7.68
2023-05-22T12:35:21.006Z,8.75
2023-05-22T12:37:49.313Z,8.00
2023-05-22T12:40:16.601Z,10.10
2023-05-22T12:42:45.226Z,8.77
2023-05-22T12:45:13.502Z,8.20
2023-05-22T12:47:43.581Z,8.75
2023-05-22T12:50:10.896Z,8.38
2023-05-22T12:52:40.425Z,9.63
2023-05-22T12:55:08.097Z,8.90
2023-05-22T12:57:35.298Z,9.18
2023-05-22T13:00:02.757Z,8.75
2023-05-22T13:02:30.167Z,8.45
2023-05-22T13:04:57.252Z,8.85
2023-05-22T13:07:24.916Z,7.85
2023-05-22T13:09:52.226Z,7.90
2023-05-22T13:12:19.583Z,8.65
2023-05-22T13:14:46.977Z,8.13
2023-05-22T13:17:14.416Z,7.97
2023-05-22T13:19:41.401Z,8.27
2023-05-22T13:22:09.057Z,8.73
2023-05-22T13:24:36.563Z,9.20
2023-05-22T13:27:06.372Z,10.25
2023-05-22T13:29:34.035Z,8.70
2023-05-22T13:32:01.964Z,7.78
2023-05-22T13:34:29.735Z,8.40
2023-05-22T13:36:57.003Z,7.88
2023-05-22T13:39:24.276Z,8.27
2023-05-22T13:41:53.150Z,8.07
2023-05-22T13:44:21.423Z,7.45
2023-05-22T13:46:48.782Z,7.57
2023-05-22T13:49:15.871Z,7.68
2023-05-22T13:51:42.813Z,7.00
2023-05-22T13:54:10.427Z,8.05
2023-05-22T13:56:37.792Z,8.25
2023-05-22T13:59:09.313Z,7.88
2023-05-22T14:01:36.835Z,7.80
2023-05-22T14:04:04.502Z,8.50
2023-05-22T14:06:31.930Z,7.47
2023-05-22T14:08:59.568Z,7.78
2023-05-22T14:11:27.978Z,7.25
2023-05-22T14:13:55.404Z,7.50
2023-05-22T14:16:23.055Z,7.90
2023-05-22T14:18:52.673Z,7.63
2023-05-22T14:21:20.189Z,8.00
2023-05-22T14:23:47.243Z,7.60
2023-05-22T14:26:14.533Z,7.60
2023-05-22T14:28:42.781Z,5.93
2023-05-22T14:31:10.237Z,5.72
2023-05-22T14:33:37.522Z,6.28
2023-05-22T14:36:34.396Z,6.70
2023-05-22T14:39:04.599Z,6.00
2023-05-22T14:41:32.034Z,5.57
2023-05-22T14:43:59.321Z,5.38
2023-05-22T14:46:26.372Z,5.32
2023-05-22T14:48:54.330Z,5.05
2023-05-22T14:51:22.354Z,5.93
2023-05-22T14:53:49.364Z,5.80
2023-05-22T14:56:16.336Z,5.70
2023-05-22T14:58:43.938Z,6.38
2023-05-22T15:01:13.155Z,6.22
2023-05-22T15:03:40.213Z,5.90
2023-05-22T15:06:07.811Z,5.45
2023-05-22T15:08:36.798Z,5.80
2023-05-22T15:11:04.202Z,5.70
2023-05-22T15:13:32.742Z,5.65
2023-05-22T15:15:59.948Z,6.60
2023-05-22T15:18:29.967Z,5.80
2023-05-22T15:21:00.412Z,6.50
2023-05-22T15:23:27.948Z,7.03
2023-05-22T15:25:57.095Z,7.72
2023-05-22T15:29:35.145Z,8.40
2023-05-22T15:32:02.336Z,8.20
2023-05-22T15:42:59.059Z,9.70
2023-05-22T15:48:33.680Z,10.20
2023-05-22T15:51:00.566Z,9.55
2023-05-22T15:53:27.821Z,10.35
2023-05-22T15:55:54.841Z,10.00
2023-05-22T15:58:21.800Z,11.48
2023-05-22T16:00:48.787Z,10.15
2023-05-22T16:03:16.963Z,9.82
2023-05-22T16:05:45.843Z,9.60
2023-05-22T16:08:15.245Z,9.85
2023-05-22T16:10:44.354Z,9.27
2023-05-22T16:13:11.442Z,9.13
2023-05-22T16:15:39.888Z,9.45
2023-05-22T16:18:08.045Z,9.35
2023-05-22T16:20:38.963Z,9.75
2023-05-22T16:23:05.933Z,10.10
2023-05-22T16:25:38.797Z,10.65
2023-05-22T16:28:19.079Z,9.32
2023-05-22T16:30:45.950Z,11.13
2023-05-22T16:33:13.245Z,11.13
2023-05-22T16:35:40.672Z,10.10
2023-05-22T16:38:11.827Z,10.25
2023-05-22T16:40:38.777Z,10.55
2023-05-22T16:43:06.209Z,9.55
2023-05-22T16:45:33.229Z,8.75
2023-05-22T16:48:00.236Z,8.95
2023-05-22T16:50:27.553Z,9.95
2023-05-22T16:52:54.529Z,8.82
2023-05-22T16:55:21.699Z,9.82
2023-05-22T16:57:48.828Z,9.63
2023-05-22T17:00:16.543Z,10.23
2023-05-22T17:02:44.057Z,10.45
2023-05-22T17:05:10.980Z,10.90
2023-05-22T17:07:38.245Z,10.48
2023-05-22T17:10:06.497Z,11.68
2023-05-22T17:12:34.201Z,12.07
2023-05-22T17:15:01.319Z,12.18
2023-05-22T17:17:28.222Z,12.85
2023-05-22T17:19:55.272Z,12.00
2023-05-22T17:22:22.479Z,12.18
2023-05-22T17:24:49.432Z,12.82
2023-05-22T17:27:28.099Z,12.63
2023-05-22T17:30:02.277Z,12.20
2023-05-22T17:32:29.418Z,12.82
2023-05-22T17:34:56.620Z,12.38
2023-05-22T17:37:23.491Z,11.75
2023-05-22T17:39:50.517Z,12.35
2023-05-22T17:42:18.067Z,12.43
2023-05-22T17:44:45.069Z,12.63
2023-05-22T17:47:13.459Z,11.30
2023-05-22T17:49:40.637Z,13.07
2023-05-22T17:52:09.040Z,11.60
2023-05-22T17:54:36.213Z,11.68
2023-05-22T17:57:04.226Z,12.60
2023-05-22T17:59:32.904Z,11.63
2023-05-22T18:01:59.880Z,12.75
2023-05-22T18:04:27.008Z,11.50
2023-05-22T18:06:54.000Z,12.38
2023-05-22T18:09:21.128Z,12.48
2023-05-22T18:11:50.312Z,13.65
2023-05-22T18:14:17.626Z,13.93
2023-05-22T18:16:45.067Z,13.63
2023-05-22T18:19:12.307Z,13.13
2023-05-22T18:21:39.408Z,14.15
2023-05-22T18:24:06.608Z,14.02
2023-05-22T18:26:33.463Z,13.70
2023-05-22T18:29:00.628Z,14.88
2023-05-22T18:31:27.723Z,15.32
2023-05-22T18:33:54.782Z,14.93
2023-05-22T18:36:21.779Z,14.90
2023-05-22T18:38:48.775Z,15.27
2023-05-22T18:41:15.878Z,14.48
2023-05-22T18:43:43.415Z,14.95
2023-05-22T18:46:10.649Z,14.82
2023-05-22T18:48:37.511Z,14.57
2023-05-22T18:51:04.571Z,14.07
2023-05-22T18:53:31.903Z,14.63
2023-05-22T18:55:59.315Z,14.40
2023-05-22T18:58:27.016Z,14.73
2023-05-22T19:00:56.065Z,15.27
2023-05-22T19:03:23.502Z,13.57
2023-05-22T19:05:50.587Z,15.23
2023-05-22T19:08:17.870Z,14.52
2023-05-22T19:10:45.237Z,14.63
2023-05-22T19:13:12.447Z,14.18
2023-05-22T19:15:39.663Z,14.98
2023-05-22T19:18:06.945Z,13.90
2023-05-22T19:20:34.438Z,13.88
2023-05-22T19:23:01.698Z,13.55
2023-05-22T19:25:28.862Z,12.85
2023-05-22T19:27:55.764Z,12.50
2023-05-22T19:30:23.259Z,12.88
2023-05-22T19:32:50.663Z,13.40
2023-05-22T19:35:20.673Z,13.00
2023-05-22T19:37:47.795Z,12.35
2023-05-22T19:40:15.058Z,12.07
2023-05-22T19:42:42.347Z,11.65
2023-05-22T19:45:54.693Z,12.10
2023-05-22T19:48:46.952Z,11.90
2023-05-22T19:55:16.880Z,10.02
2023-05-22T19:57:45.039Z,10.38
2023-05-22T20:00:12.971Z,9.70
2023-05-22T20:02:40.534Z,9.32
2023-05-22T20:05:09.511Z,10.50
2023-05-22T20:07:36.959Z,10.25
2023-05-22T20:10:06.721Z,10.48
2023-05-22T20:12:34.694Z,9.98
2023-05-22T20:15:04.210Z,9.20
2023-05-22T20:17:32.218Z,9.85
2023-05-22T20:20:00.605Z,9.80
2023-05-22T20:22:28.608Z,9.63
2023-05-22T20:24:56.248Z,9.07
2023-05-22T20:27:23.517Z,8.55
2023-05-22T20:29:51.136Z,7.72
2023-05-22T20:32:18.435Z,8.18
2023-05-22T20:34:46.617Z,9.20
2023-05-22T20:37:14.626Z,8.73
2023-05-22T20:39:46.733Z,9.13
2023-05-22T20:42:14.793Z,8.70
2023-05-22T20:44:41.994Z,9.85
2023-05-22T20:47:09.653Z,9.10
2023-05-22T20:49:38.536Z,9.35
2023-05-22T20:52:05.902Z,10.02
2023-05-22T20:54:34.807Z,9.38
2023-05-22T20:57:02.724Z,9.60
2023-05-22T20:59:30.074Z,9.13
2023-05-22T21:01:58.046Z,9.60
2023-05-22T21:04:26.159Z,10.07
2023-05-22T21:06:53.451Z,10.90
2023-05-22T21:09:21.114Z,10.55
2023-05-22T21:11:48.519Z,10.23
2023-05-22T21:14:17.486Z,10.25
2023-05-22T21:16:44.956Z,10.45
2023-05-22T21:19:12.570Z,11.15
2023-05-22T21:21:42.015Z,10.05
2023-05-22T21:24:12.252Z,10.30
2023-05-22T21:26:41.022Z,10.30
2023-05-22T21:29:08.002Z,10.38
2023-05-22T21:31:35.746Z,10.82
2023-05-22T21:34:03.272Z,8.73
2023-05-22T21:36:31.564Z,9.73
2023-05-22T21:39:00.347Z,8.95
2023-05-22T21:41:28.029Z,9.55
2023-05-22T21:43:55.371Z,11.05
2023-05-22T21:46:23.084Z,9.18
2023-05-22T21:48:50.348Z,8.70
2023-05-22T21:51:17.471Z,10.10
2023-05-22T21:53:44.742Z,9.95
2023-05-22T21:56:11.825Z,10.85
2023-05-22T21:58:38.834Z,10.38
2023-05-22T22:01:05.936Z,13.35
2023-05-22T22:03:33.067Z,13.75
2023-05-22T22:06:00.106Z,21.90
2023-05-22T22:08:28.425Z,21.92
2023-05-22T22:10:56.298Z,21.67
2023-05-22T22:13:24.737Z,22.67
2023-05-22T22:15:51.772Z,26.60
2023-05-22T22:18:19.059Z,32.92
2023-05-22T22:20:46.131Z,35.72
2023-05-22T22:23:13.281Z,41.72
2023-05-22T22:25:40.419Z,38.35
2023-05-22T22:28:08.126Z,42.22
2023-05-22T22:30:35.550Z,43.10
2023-05-22T22:33:02.979Z,42.35
2023-05-22T22:35:30.120Z,41.55
2023-05-22T22:37:57.477Z,47.92
2023-05-22T22:40:26.644Z,47.97
2023-05-22T22:42:53.826Z,46.83
2023-05-22T22:45:20.924Z,49.88
2023-05-22T22:47:48.552Z,51.15
2023-05-22T22:50:16.108Z,52.75
2023-05-22T22:52:46.235Z,50.28
2023-05-22T22:55:13.580Z,49.63
2023-05-22T22:57:43.413Z,48.78
2023-05-22T23:00:13.417Z,46.78
2023-05-22T23:02:40.976Z,48.70
2023-05-22T23:05:08.613Z,45.97
2023-05-22T23:07:35.823Z,45.13
2023-05-22T23:10:02.818Z,42.45
2023-05-22T23:12:29.817Z,44.65
2023-05-22T23:14:56.949Z,44.45
2023-05-22T23:17:24.165Z,44.25
2023-05-22T23:19:51.193Z,42.55
2023-05-22T23:22:19.007Z,41.05
2023-05-22T23:24:46.010Z,41.15
2023-05-22T23:27:13.020Z,40.05
2023-05-22T23:29:40.154Z,38.63
2023-05-22T23:32:07.498Z,39.03
2023-05-22T23:34:34.579Z,39.22
2023-05-22T23:37:01.573Z,40.38
2023-05-22T23:39:28.493Z,41.58
2023-05-22T23:41:55.741Z,40.92
2023-05-22T23:44:23.000Z,40.75
2023-05-22T23:46:50.252Z,41.60
2023-05-22T23:49:17.311Z,41.42
2023-05-22T23:51:44.802Z,42.47
2023-05-22T23:54:13.181Z,40.50
2023-05-22T23:56:40.244Z,39.22
2023-05-22T23:59:07.216Z,40.58
